| time (UTC) | temp C | wind direction | speed KPH | gust KPH | rain 1hr cm | rain 24hr cm | rain mn cm | humidity % | barometer mb |
| 20260502162003 | 20 | 91 | 1.6 | 14.5 | 0.00 | 1.50 | 0.00 | 61 | 1021.2 |
| 20260502161503 | 20 | 82 | 1.6 | 12.9 | 0.00 | 1.55 | 0.00 | 63 | 1021.1 |
| 20260502161003 | 19 | 68 | 3.2 | 12.9 | 0.00 | 1.60 | 0.00 | 61 | 1021.2 |
| 20260502160503 | 19 | 62 | 3.2 | 12.9 | 0.00 | 1.60 | 0.00 | 62 | 1021.2 |
| 20260502152003 | 18 | 91 | 0.0 | 12.9 | 0.00 | 2.06 | 0.00 | 70 | 1021.1 |
| 20260502151503 | 18 | 98 | 0.0 | 6.4 | 0.00 | 2.08 | 0.00 | 70 | 1021.1 |
| 20260502151024 | 18 | 156 | 0.0 | 4.8 | 0.00 | 2.13 | 0.00 | 75 | 1021.1 |
| 20260502150503 | 18 | 85 | 1.6 | 11.3 | 0.00 | 2.16 | 0.00 | 75 | 1021.1 |
| 20260502130503 | 12 | 271 | 0.0 | 3.2 | 0.00 | 2.90 | 0.00 | 94 | 1019.9 |
| 20260502123503 | 11 | 246 | 0.0 | 4.8 | 0.00 | 2.79 | 0.00 | 94 | 1019.4 |
| 20260502123003 | 11 | 245 | 0.0 | 3.2 | 0.00 | 2.82 | 0.00 | 94 | 1019.3 |
| 20260502122503 | 10 | 167 | 0.0 | 1.6 | 0.00 | 2.84 | 0.00 | 94 | 1019.2 |
| 20260502122003 | 10 | 167 | 0.0 | 1.6 | 0.00 | 2.87 | 0.00 | 94 | 1019.0 |
| 20260502121503 | 10 | 167 | 0.0 | 3.2 | 0.00 | 2.87 | 0.00 | 94 | 1018.9 |
| 20260502121003 | 10 | 167 | 0.0 | 3.2 | 0.00 | 2.90 | 0.00 | 94 | 1018.8 |
| 20260502120503 | 10 | 167 | 0.0 | 1.6 | 0.00 | 2.92 | 0.00 | 94 | 1018.7 |
| 20260502115503 | 10 | 160 | 0.0 | 4.8 | 0.00 | 2.95 | 0.00 | 93 | 1018.6 |
| 20260502115003 | 10 | 158 | 0.0 | 4.8 | 0.00 | 2.97 | 0.00 | 93 | 1018.6 |
| 20260502114503 | 10 | 20 | 0.0 | 3.2 | 0.00 | 3.00 | 0.00 | 93 | 1018.5 |
| 20260502114003 | 10 | 20 | 0.0 | 3.2 | 0.00 | 3.00 | 0.00 | 93 | 1018.4 |
| 20260502113503 | 10 | 12 | 0.0 | 1.6 | 0.00 | 3.02 | 0.00 | 93 | 1018.3 |
| 20260502113003 | 10 | 10 | 0.0 | 3.2 | 0.00 | 3.02 | 0.00 | 93 | 1018.2 |
| 20260502112503 | 10 | 8 | 0.0 | 3.2 | 0.00 | 3.05 | 0.00 | 93 | 1018.2 |
| 20260502112024 | 10 | 0 | 0.0 | 0.0 | 0.00 | 3.05 | 0.00 | 93 | 1018.1 |
| 20260502111503 | 10 | 0 | 0.0 | 0.0 | 0.00 | 3.05 | 0.00 | 93 | 1018.1 |
| 20260502111003 | 10 | 0 | 0.0 | 0.0 | 0.00 | 3.07 | 0.00 | 93 | 1017.9 |
| 20260502110524 | 10 | 0 | 0.0 | 0.0 | 0.00 | 3.07 | 0.00 | 93 | 1017.9 |
| 20260502110004 | 10 | 0 | 0.0 | 0.0 | 0.00 | 3.07 | 0.00 | 93 | 1017.8 |
| 20260502105524 | 10 | 0 | 0.0 | 0.0 | 0.00 | 3.07 | 0.00 | 93 | 1017.7 |
| 20260502105003 | 10 | 0 | 0.0 | 0.0 | 0.00 | 3.07 | 0.00 | 93 | 1017.7 |
| 20260502104503 | 10 | 0 | 0.0 | 0.0 | 0.00 | 3.07 | 0.00 | 93 | 1017.6 |
| 20260502104003 | 10 | 0 | 0.0 | 0.0 | 0.00 | 3.07 | 0.00 | 93 | 1017.6 |
| 20260502103503 | 10 | 0 | 0.0 | 0.0 | 0.00 | 3.07 | 0.00 | 93 | 1017.5 |
| 20260502103003 | 10 | 0 | 0.0 | 0.0 | 0.00 | 3.07 | 0.00 | 93 | 1017.5 |
| 20260502102503 | 10 | 0 | 0.0 | 0.0 | 0.00 | 3.07 | 0.00 | 93 | 1017.3 |
| 20260502102003 | 10 | 0 | 0.0 | 0.0 | 0.00 | 3.07 | 0.00 | 93 | 1017.3 |
| 20260502101503 | 10 | 0 | 0.0 | 0.0 | 0.00 | 3.07 | 0.00 | 93 | 1017.2 |
| 20260502101003 | 10 | 0 | 0.0 | 0.0 | 0.00 | 3.07 | 0.00 | 93 | 1017.2 |
| 20260502100503 | 10 | 0 | 0.0 | 0.0 | 0.00 | 3.07 | 0.00 | 93 | 1017.1 |
| 20260502091503 | 10 | 0 | 0.0 | 0.0 | 0.00 | 3.07 | 0.00 | 93 | 1017.0 |
| 20260502091003 | 11 | 0 | 0.0 | 0.0 | 0.00 | 3.07 | 0.00 | 93 | 1017.1 |
| 20260502090503 | 11 | 0 | 0.0 | 0.0 | 0.00 | 3.07 | 0.00 | 93 | 1017.1 |
| 20260502071524 | 11 | 32 | 0.0 | 3.2 | 0.00 | 3.07 | 0.00 | 93 | 1017.1 |
| 20260502071024 | 11 | 32 | 0.0 | 3.2 | 0.00 | 3.07 | 0.00 | 93 | 1017.0 |
| 20260502070503 | 11 | 35 | 0.0 | 3.2 | 0.00 | 3.07 | 0.00 | 93 | 1017.1 |
| 20260502070003 | 11 | 52 | 0.0 | 4.8 | 0.00 | 3.07 | 0.00 | 93 | 1017.1 |
| 20260502065524 | 11 | 56 | 0.0 | 4.8 | 0.00 | 3.07 | 0.00 | 93 | 1017.0 |
| 20260502065024 | 11 | 92 | 0.0 | 1.6 | 0.00 | 3.07 | 0.00 | 93 | 1017.1 |
| 20260502064503 | 11 | 0 | 0.0 | 0.0 | 0.00 | 3.07 | 0.00 | 93 | 1017.0 |
| 20260502064024 | 11 | 0 | 0.0 | 0.0 | 0.00 | 3.07 | 0.00 | 93 | 1017.0 |
| 20260502063503 | 11 | 92 | 0.0 | 1.6 | 0.00 | 3.07 | 0.00 | 93 | 1016.9 |
| 20260502063003 | 11 | 92 | 0.0 | 1.6 | 0.00 | 3.07 | 0.00 | 93 | 1017.0 |
| 20260502062503 | 11 | 0 | 0.0 | 0.0 | 0.00 | 3.07 | 0.00 | 93 | 1017.0 |
| 20260502062003 | 11 | 92 | 0.0 | 1.6 | 0.00 | 3.07 | 0.00 | 93 | 1017.0 |
| 20260502061503 | 11 | 89 | 0.0 | 4.8 | 0.00 | 3.07 | 0.00 | 93 | 1016.9 |
| 20260502061003 | 11 | 89 | 0.0 | 4.8 | 0.00 | 3.07 | 0.00 | 93 | 1017.0 |
| 20260502060503 | 11 | 0 | 0.0 | 0.0 | 0.00 | 3.07 | 0.00 | 93 | 1016.9 |
| 20260502060003 | 11 | 0 | 0.0 | 0.0 | 0.00 | 3.07 | 0.00 | 93 | 1016.8 |
| 20260502055503 | 11 | 0 | 0.0 | 0.0 | 0.00 | 3.07 | 0.00 | 93 | 1016.8 |
| 20260502055024 | 11 | 0 | 0.0 | 0.0 | 0.00 | 3.10 | 0.00 | 93 | 1016.7 |
| 20260502054503 | 11 | 0 | 0.0 | 0.0 | 0.00 | 3.12 | 0.00 | 93 | 1016.8 |
| 20260502054024 | 11 | 0 | 0.0 | 0.0 | 0.00 | 3.12 | 0.00 | 93 | 1016.7 |
| 20260502053503 | 11 | 0 | 0.0 | 0.0 | 0.00 | 3.12 | 0.00 | 93 | 1016.8 |
| 20260502053003 | 11 | 0 | 0.0 | 0.0 | 0.00 | 3.12 | 0.00 | 93 | 1016.8 |
| 20260502052503 | 12 | 0 | 0.0 | 0.0 | 0.00 | 3.12 | 0.00 | 93 | 1016.9 |
| 20260502052024 | 12 | 0 | 0.0 | 0.0 | 0.00 | 3.12 | 0.00 | 93 | 1016.9 |
| 20260502051503 | 12 | 0 | 0.0 | 0.0 | 0.00 | 3.12 | 0.00 | 93 | 1016.7 |
| 20260502051003 | 12 | 0 | 0.0 | 0.0 | 0.00 | 3.12 | 0.00 | 93 | 1016.7 |
| 20260502050504 | 12 | 0 | 0.0 | 0.0 | 0.00 | 3.12 | 0.00 | 93 | 1016.7 |
| 20260502050004 | 12 | 0 | 0.0 | 0.0 | 0.00 | 3.12 | 0.00 | 93 | 1016.7 |
| 20260502045503 | 12 | 0 | 0.0 | 0.0 | 0.00 | 3.12 | 3.12 | 93 | 1016.8 |
| 20260502045024 | 12 | 0 | 0.0 | 0.0 | 0.00 | 3.12 | 3.12 | 93 | 1016.7 |
| 20260502044504 | 12 | 0 | 0.0 | 0.0 | 0.00 | 3.12 | 3.12 | 93 | 1016.8 |
| 20260502044024 | 12 | 0 | 0.0 | 0.0 | 0.00 | 3.12 | 3.12 | 93 | 1016.8 |
| 20260502043503 | 12 | 83 | 0.0 | 1.6 | 0.00 | 3.12 | 3.12 | 93 | 1016.8 |
| 20260502043003 | 12 | 83 | 0.0 | 1.6 | 0.00 | 3.12 | 3.12 | 93 | 1017.0 |
| 20260502042503 | 12 | 0 | 0.0 | 0.0 | 0.00 | 3.12 | 3.12 | 93 | 1017.0 |
| 20260502042003 | 12 | 83 | 0.0 | 1.6 | 0.00 | 3.12 | 3.12 | 93 | 1016.9 |
| 20260502041503 | 12 | 83 | 0.0 | 1.6 | 0.00 | 3.12 | 3.12 | 93 | 1017.0 |
| 20260502041025 | 12 | 83 | 0.0 | 1.6 | 0.00 | 3.12 | 3.12 | 93 | 1017.2 |
| 20260502040503 | 12 | 83 | 0.0 | 1.6 | 0.00 | 3.12 | 3.12 | 93 | 1017.1 |
| 20260502040003 | 12 | 83 | 0.0 | 1.6 | 0.00 | 3.12 | 3.12 | 93 | 1017.2 |
| 20260502035503 | 12 | 83 | 0.0 | 1.6 | 0.00 | 3.12 | 3.12 | 93 | 1017.2 |
| 20260502035003 | 12 | 83 | 1.6 | 3.2 | 0.00 | 3.12 | 3.12 | 93 | 1017.1 |
| 20260502034503 | 12 | 83 | 1.6 | 4.8 | 0.00 | 3.12 | 3.12 | 93 | 1016.8 |
| 20260502034003 | 12 | 83 | 1.6 | 4.8 | 0.00 | 3.12 | 3.12 | 93 | 1016.7 |
| 20260502033503 | 11 | 83 | 1.6 | 4.8 | 0.00 | 3.12 | 3.12 | 93 | 1016.7 |
| 20260502033003 | 11 | 83 | 1.6 | 4.8 | 0.00 | 3.15 | 3.12 | 93 | 1016.7 |
| 20260502032503 | 11 | 83 | 1.6 | 3.2 | 0.03 | 3.15 | 3.12 | 93 | 1016.5 |
| 20260502032003 | 11 | 82 | 0.0 | 3.2 | 0.03 | 3.15 | 3.12 | 93 | 1016.7 |
| 20260502031503 | 11 | 82 | 0.0 | 3.2 | 0.03 | 3.15 | 3.12 | 93 | 1016.9 |
| 20260502031024 | 11 | 0 | 0.0 | 0.0 | 0.03 | 3.15 | 3.12 | 93 | 1016.9 |
| 20260502030503 | 11 | 0 | 0.0 | 0.0 | 0.05 | 3.15 | 3.12 | 93 | 1017.2 |
| 20260502030003 | 11 | 80 | 0.0 | 3.2 | 0.05 | 3.15 | 3.12 | 93 | 1017.2 |
| 20260502025503 | 11 | 80 | 0.0 | 3.2 | 0.08 | 3.15 | 3.12 | 93 | 1017.3 |
| 20260502025003 | 11 | 80 | 0.0 | 3.2 | 0.08 | 3.15 | 3.12 | 93 | 1017.0 |
| 20260502024503 | 11 | 80 | 0.0 | 3.2 | 0.10 | 3.15 | 3.12 | 93 | 1017.0 |
| 20260502024003 | 11 | 79 | 0.0 | 3.2 | 0.10 | 3.15 | 3.12 | 93 | 1016.6 |
| 20260502023503 | 11 | 79 | 0.0 | 1.6 | 0.10 | 3.15 | 3.12 | 93 | 1016.6 |
| 20260502023003 | 11 | 79 | 0.0 | 1.6 | 0.13 | 3.15 | 3.12 | 93 | 1016.6 |
| 20260502022503 | 11 | 68 | 1.6 | 6.4 | 0.15 | 3.15 | 3.10 | 92 | 1016.4 |
| 20260502022003 | 11 | 65 | 1.6 | 6.4 | 0.18 | 3.15 | 3.10 | 93 | 1016.2 |
| 20260502021503 | 11 | 60 | 1.6 | 4.8 | 0.20 | 3.15 | 3.10 | 93 | 1016.2 |
| 20260502021024 | 11 | 60 | 0.0 | 3.2 | 0.20 | 3.17 | 3.10 | 93 | 1016.3 |
| 20260502020524 | 11 | 0 | 0.0 | 0.0 | 0.18 | 3.15 | 3.07 | 92 | 1016.5 |
| 20260502020003 | 11 | 0 | 0.0 | 0.0 | 0.18 | 3.15 | 3.07 | 92 | 1016.6 |
| 20260502015503 | 11 | 60 | 0.0 | 1.6 | 0.18 | 3.12 | 3.05 | 92 | 1016.3 |
| 20260502015003 | 11 | 60 | 0.0 | 1.6 | 0.20 | 3.12 | 3.05 | 92 | 1016.6 |
| 20260502014524 | 11 | 60 | 0.0 | 3.2 | 0.18 | 3.10 | 3.02 | 92 | 1016.5 |
| 20260502014003 | 11 | 60 | 0.0 | 3.2 | 0.18 | 3.10 | 3.02 | 92 | 1017.2 |
| 20260502013524 | 11 | 60 | 0.0 | 3.2 | 0.18 | 3.10 | 3.00 | 92 | 1016.5 |
| 20260502013003 | 11 | 60 | 0.0 | 4.8 | 0.15 | 3.07 | 2.97 | 92 | 1016.2 |
| 20260502012524 | 11 | 45 | 3.2 | 6.4 | 0.10 | 3.07 | 2.95 | 92 | 1015.9 |
| 20260502012003 | 11 | 32 | 3.2 | 6.4 | 0.10 | 3.07 | 2.92 | 92 | 1015.7 |
| 20260502011503 | 11 | 8 | 0.0 | 6.4 | 0.08 | 3.07 | 2.90 | 92 | 1016.1 |
| 20260502011003 | 11 | 6 | 0.0 | 4.8 | 0.08 | 3.10 | 2.90 | 92 | 1016.1 |
| 20260502010503 | 11 | 88 | 1.6 | 4.8 | 0.08 | 3.12 | 2.90 | 92 | 1015.9 |
| 20260502010003 | 11 | 90 | 3.2 | 9.7 | 0.08 | 3.15 | 2.90 | 92 | 1015.6 |
| 20260502005503 | 11 | 86 | 3.2 | 9.7 | 0.05 | 3.12 | 2.87 | 92 | 1015.1 |
| 20260502005003 | 11 | 81 | 3.2 | 8.0 | 0.03 | 3.12 | 2.84 | 92 | 1015.2 |
| 20260502004503 | 11 | 73 | 1.6 | 11.3 | 0.05 | 3.12 | 2.84 | 92 | 1015.6 |
| 20260502004004 | 10 | 74 | 4.8 | 12.9 | 0.05 | 3.15 | 2.84 | 92 | 1015.5 |
| 20260502003524 | 10 | 77 | 6.4 | 12.9 | 0.03 | 3.12 | 2.82 | 92 | 1014.9 |
| 20260502003003 | 10 | 78 | 6.4 | 19.3 | 0.03 | 3.12 | 2.82 | 91 | 1014.8 |
| 20260502002504 | 10 | 72 | 6.4 | 19.3 | 0.03 | 3.12 | 2.82 | 92 | 1014.7 |
| 20260502002003 | 11 | 76 | 6.4 | 20.9 | 0.03 | 3.12 | 2.82 | 92 | 1014.6 |
| 20260502001503 | 11 | 78 | 6.4 | 20.9 | 0.05 | 3.12 | 2.82 | 92 | 1014.7 |
| 20260502001024 | 11 | 72 | 6.4 | 16.1 | 0.05 | 3.12 | 2.82 | 92 | 1014.7 |
| 20260502000503 | 11 | 75 | 6.4 | 16.1 | 0.05 | 3.12 | 2.82 | 92 | 1014.4 |
| 20260502000003 | 11 | 77 | 6.4 | 17.7 | 0.08 | 3.12 | 2.82 | 92 | 1014.4 |
| 20260501235503 | 11 | 72 | 8.0 | 19.3 | 0.08 | 3.12 | 2.82 | 92 | 1014.4 |
| 20260501235003 | 11 | 71 | 8.0 | 19.3 | 0.08 | 3.12 | 2.82 | 92 | 1014.3 |
| 20260501234503 | 11 | 74 | 6.4 | 17.7 | 0.05 | 3.10 | 2.79 | 92 | 1014.4 |
| 20260501234003 | 11 | 75 | 6.4 | 16.1 | 0.08 | 3.10 | 2.79 | 92 | 1014.5 |
| 20260501233524 | 11 | 77 | 8.0 | 17.7 | 0.10 | 3.10 | 2.79 | 92 | 1014.5 |
| 20260501233024 | 11 | 80 | 6.4 | 17.7 | 0.10 | 3.10 | 2.79 | 92 | 1014.5 |
| 20260501232503 | 11 | 80 | 8.0 | 19.3 | 0.13 | 3.10 | 2.79 | 92 | 1014.6 |
| 20260501232003 | 11 | 77 | 9.7 | 19.3 | 0.15 | 3.10 | 2.79 | 92 | 1014.5 |
| 20260501231503 | 11 | 76 | 9.7 | 19.3 | 0.15 | 3.07 | 2.77 | 92 | 1014.5 |
| 20260501231003 | 11 | 76 | 9.7 | 16.1 | 0.18 | 3.07 | 2.77 | 92 | 1014.5 |
| 20260501230503 | 11 | 77 | 11.3 | 20.9 | 0.23 | 3.07 | 2.77 | 92 | 1014.5 |
| 20260501230003 | 11 | 73 | 11.3 | 20.9 | 0.25 | 3.05 | 2.77 | 92 | 1014.7 |
| 20260501225503 | 11 | 70 | 11.3 | 24.1 | 0.28 | 3.05 | 2.77 | 92 | 1014.7 |
| 20260501225003 | 11 | 74 | 9.7 | 24.1 | 0.30 | 3.05 | 2.77 | 92 | 1014.5 |
| 20260501224503 | 11 | 77 | 6.4 | 16.1 | 0.30 | 3.05 | 2.77 | 92 | 1014.5 |
| 20260501224003 | 11 | 71 | 6.4 | 19.3 | 0.30 | 3.02 | 2.74 | 92 | 1014.4 |
| 20260501223503 | 12 | 72 | 6.4 | 19.3 | 0.28 | 3.00 | 2.72 | 92 | 1014.1 |
| 20260501223003 | 11 | 78 | 6.4 | 12.9 | 0.25 | 2.97 | 2.69 | 92 | 1014.0 |
| 20260501222503 | 11 | 80 | 6.4 | 12.9 | 0.25 | 2.97 | 2.67 | 92 | 1014.0 |
| 20260501222003 | 11 | 76 | 6.4 | 14.5 | 0.23 | 2.95 | 2.64 | 92 | 1013.7 |
| 20260501221503 | 11 | 80 | 6.4 | 14.5 | 0.20 | 2.92 | 2.62 | 92 | 1013.9 |
| 20260501221003 | 11 | 80 | 4.8 | 11.3 | 0.20 | 2.92 | 2.59 | 92 | 1014.0 |
| 20260501220524 | 11 | 75 | 6.4 | 14.5 | 0.15 | 2.87 | 2.57 | 92 | 1014.0 |
| 20260501215503 | 11 | 75 | 8.0 | 17.7 | 0.10 | 2.79 | 2.49 | 92 | 1013.6 |
| 20260501215003 | 11 | 76 | 6.4 | 17.7 | 0.10 | 2.77 | 2.46 | 91 | 1013.5 |
| 20260501214503 | 11 | 78 | 6.4 | 12.9 | 0.10 | 2.77 | 2.44 | 91 | 1013.7 |
| 20260501214003 | 11 | 78 | 6.4 | 16.1 | 0.10 | 2.77 | 2.44 | 91 | 1013.9 |
| 20260501213503 | 11 | 79 | 6.4 | 16.1 | 0.10 | 2.77 | 2.44 | 91 | 1014.1 |
| 20260501213024 | 11 | 78 | 8.0 | 17.7 | 0.10 | 2.77 | 2.44 | 91 | 1013.8 |
| 20260501212503 | 11 | 80 | 8.0 | 17.7 | 0.10 | 2.74 | 2.41 | 91 | 1013.6 |
| 20260501212003 | 11 | 84 | 8.0 | 17.7 | 0.10 | 2.77 | 2.41 | 91 | 1013.6 |
| 20260501211524 | 11 | 87 | 8.0 | 17.7 | 0.10 | 2.77 | 2.41 | 91 | 1013.7 |
| 20260501211003 | 11 | 90 | 4.8 | 14.5 | 0.08 | 2.77 | 2.39 | 91 | 1014.0 |
| 20260501210503 | 11 | 104 | 3.2 | 9.7 | 0.08 | 2.77 | 2.39 | 91 | 1014.3 |
| 20260501210003 | 11 | 118 | 3.2 | 11.3 | 0.08 | 2.77 | 2.39 | 91 | 1014.3 |
| 20260501205524 | 11 | 125 | 3.2 | 11.3 | 0.05 | 2.77 | 2.36 | 91 | 1014.5 |
| 20260501205003 | 11 | 134 | 1.6 | 6.4 | 0.05 | 2.77 | 2.36 | 91 | 1014.6 |
| 20260501204503 | 11 | 104 | 1.6 | 9.7 | 0.03 | 2.77 | 2.36 | 91 | 1014.7 |
| 20260501204003 | 11 | 90 | 3.2 | 9.7 | 0.03 | 2.77 | 2.36 | 91 | 1014.5 |
| 20260501203503 | 11 | 87 | 4.8 | 11.3 | 0.00 | 2.74 | 2.34 | 91 | 1014.3 |
| 20260501203024 | 11 | 83 | 6.4 | 14.5 | 0.00 | 2.74 | 2.34 | 91 | 1014.1 |
| 20260501202524 | 11 | 74 | 6.4 | 16.1 | 0.00 | 2.74 | 2.34 | 91 | 1013.9 |
| 20260501202003 | 11 | 70 | 8.0 | 19.3 | 0.00 | 2.74 | 2.34 | 91 | 1013.7 |
| 20260501201503 | 11 | 73 | 9.7 | 27.4 | 0.00 | 2.77 | 2.34 | 91 | 1013.5 |
| 20260501201024 | 11 | 72 | 11.3 | 27.4 | 0.00 | 2.77 | 2.34 | 91 | 1013.5 |
| 20260501200524 | 11 | 74 | 11.3 | 24.1 | 0.00 | 2.77 | 2.34 | 92 | 1013.1 |
| 20260501200003 | 11 | 75 | 9.7 | 24.1 | 0.00 | 2.77 | 2.34 | 92 | 1012.6 |
| 20260501195503 | 12 | 78 | 9.7 | 20.9 | 0.00 | 2.77 | 2.34 | 92 | 1012.6 |
| 20260501195003 | 12 | 77 | 11.3 | 22.5 | 0.00 | 2.77 | 2.34 | 92 | 1012.8 |
| 20260501194503 | 12 | 73 | 11.3 | 22.5 | 0.03 | 2.77 | 2.34 | 92 | 1012.4 |
| 20260501194003 | 12 | 74 | 12.9 | 25.7 | 0.03 | 2.77 | 2.34 | 92 | 1012.3 |
| 20260501193503 | 12 | 74 | 14.5 | 32.2 | 0.03 | 2.79 | 2.34 | 92 | 1011.9 |
| 20260501193003 | 12 | 72 | 16.1 | 32.2 | 0.03 | 2.79 | 2.34 | 92 | 1011.2 |
| 20260501192503 | 12 | 73 | 14.5 | 27.4 | 0.03 | 2.82 | 2.34 | 92 | 1011.3 |
| 20260501192024 | 12 | 76 | 12.9 | 27.4 | 0.05 | 2.84 | 2.34 | 92 | 1011.4 |
| 20260501191524 | 12 | 76 | 12.9 | 27.4 | 0.05 | 2.84 | 2.34 | 92 | 1012.1 |
| 20260501191003 | 12 | 79 | 14.5 | 30.6 | 0.08 | 2.84 | 2.34 | 92 | 1012.1 |
| 20260501190503 | 12 | 81 | 12.9 | 30.6 | 0.08 | 2.84 | 2.34 | 92 | 1012.5 |
| 20260501190024 | 12 | 75 | 12.9 | 30.6 | 0.10 | 2.84 | 2.34 | 92 | 1012.5 |
| 20260501185503 | 12 | 72 | 14.5 | 25.7 | 0.10 | 2.84 | 2.34 | 92 | 1012.9 |
| 20260501185024 | 12 | 73 | 16.1 | 27.4 | 0.10 | 2.87 | 2.34 | 92 | 1012.7 |
| 20260501184504 | 12 | 76 | 16.1 | 27.4 | 0.10 | 2.87 | 2.31 | 92 | 1012.9 |
| 20260501184024 | 12 | 75 | 16.1 | 27.4 | 0.10 | 2.90 | 2.31 | 92 | 1013.3 |
| 20260501183503 | 12 | 73 | 12.9 | 22.5 | 0.13 | 2.92 | 2.31 | 92 | 1013.8 |
| 20260501183003 | 12 | 77 | 11.3 | 25.7 | 0.15 | 2.97 | 2.31 | 92 | 1014.1 |
| 20260501182503 | 12 | 76 | 14.5 | 29.0 | 0.18 | 3.12 | 2.31 | 92 | 1014.3 |
| 20260501182024 | 12 | 75 | 12.9 | 29.0 | 0.18 | 3.48 | 2.29 | 92 | 1014.2 |
| 20260501181503 | 12 | 77 | 11.3 | 19.3 | 0.20 | 3.89 | 2.29 | 93 | 1014.1 |
| 20260501181003 | 12 | 74 | 12.9 | 27.4 | 0.20 | 3.91 | 2.26 | 93 | 1014.3 |
| 20260501180503 | 12 | 71 | 16.1 | 33.8 | 0.23 | 3.91 | 2.26 | 93 | 1014.5 |
| 20260501180003 | 11 | 73 | 16.1 | 33.8 | 0.23 | 3.91 | 2.24 | 93 | 1014.5 |
| 20260501175503 | 11 | 73 | 16.1 | 29.0 | 0.23 | 3.89 | 2.21 | 93 | 1014.6 |
| 20260501175003 | 12 | 72 | 16.1 | 29.0 | 0.25 | 3.91 | 2.21 | 93 | 1014.7 |
| 20260501174503 | 12 | 75 | 14.5 | 25.7 | 0.28 | 4.01 | 2.18 | 93 | 1014.7 |
| 20260501174003 | 12 | 76 | 16.1 | 29.0 | 0.30 | 4.32 | 2.18 | 93 | 1015.0 |
| 20260501173503 | 12 | 76 | 14.5 | 29.0 | 0.33 | 4.67 | 2.16 | 93 | 1015.2 |
| 20260501173024 | 12 | 74 | 11.3 | 27.4 | 0.33 | 4.65 | 2.16 | 93 | 1015.3 |
| 20260501172024 | 12 | 81 | 9.7 | 24.1 | 0.38 | 4.62 | 2.11 | 94 | 1016.0 |
| 20260501171503 | 12 | 77 | 9.7 | 24.1 | 0.41 | 4.60 | 2.08 | 94 | 1015.9 |
| 20260501171003 | 12 | 73 | 6.4 | 12.9 | 0.43 | 4.57 | 2.06 | 94 | 1015.8 |
| 20260501170503 | 12 | 74 | 6.4 | 16.1 | 0.43 | 4.55 | 2.03 | 94 | 1015.7 |
| 20260501170003 | 12 | 74 | 9.7 | 19.3 | 0.43 | 4.52 | 2.01 | 94 | 1015.7 |
| 20260501165524 | 12 | 75 | 11.3 | 20.9 | 0.46 | 4.50 | 1.98 | 94 | 1015.7 |
| 20260501165003 | 12 | 81 | 8.0 | 20.9 | 0.48 | 4.47 | 1.96 | 94 | 1015.9 |
| 20260501164503 | 12 | 82 | 4.8 | 14.5 | 0.48 | 4.42 | 1.93 | 94 | 1016.4 |
| 20260501164024 | 12 | 77 | 4.8 | 12.9 | 0.48 | 4.39 | 1.88 | 94 | 1016.5 |
| 20260501163503 | 12 | 81 | 6.4 | 14.5 | 0.48 | 4.34 | 1.83 | 93 | 1016.4 |
| 20260501163003 | 12 | 79 | 6.4 | 16.1 | 0.51 | 4.32 | 1.80 | 93 | 1016.5 |
| 20260501162524 | 12 | 78 | 6.4 | 16.1 | 0.51 | 4.27 | 1.75 | 93 | 1016.5 |